Richmond International Airport
KRIC : now visible

Airfield :











YOU CAN JOIN US ON...

 
LOGIN :

Register | Disclaimer

   EN    FR    IT 

 









Legend :    VFR   Marginal VFR   IFR   Intensive IFR   Very Intensive IFR
Visi :
Ceiling :
>= 8 km
>= 3000ft
5 to 8 km
1000 to 3000 ft
1500m to 5 km
500 to 1000 ft
800 to 1500m
200 to 500 ft
< 800m
< 200 ft
Symbols :   Thunderstorms  Fog  Heavy snow  Heavy precipitations  Wind > 20 kt






- Airport Elevation : 167 ft
- IATA code : RIC


KRIC - Richmond International

CURRENT METAR :
  • 100654Z 32009KT 10SM FEW110 09/M03 A2963 RMK AO2 SLP037 T00891033

EXPIRED METARs :
  • 100554Z 31010G19KT 10SM BKN110 10/M03 A2962 RMK AO2 SLP036 T01001033 10178 20100 51027
  • 100454Z 33011KT 10SM FEW110 11/M01 A2962 RMK AO2 SLP033 T01061011 402560100

TAF KRIC
Valid from the 10 at 06:00 until the 11 at 06:00 UTC


100520Z 1006/1106 31011KT P6SM SCT100
FM101200 29012G22KT P6SM SKC
FM101400 30020G35KT P6SM FEW060
FM102200 31012G22KT P6SM SKC
FM110200 31007KT P6SM SKC



MET'MAP, your aeronautical weather chart ! - Copyright ORBIFLY December 2007 - Disclaimer

ORBIFLY MET'MAP TEAM :

Programming & Development : Alexandra Zaïnal
Concept & original design : Baudouin d'Aumeries
Assistance for programming : Marc-Olivier Méhu
Technical & hardware support : Manuel Goepfert

Contact : metmap@orbifly.com




SOURCES & CREDITS :

   NOAA       Earth
Advisory